createdAt,value
2023-02-02T00:00:45.653Z,1004.73
2023-02-02T00:01:45.646Z,1004.89
2023-02-02T00:02:45.718Z,1004.78
2023-02-02T00:03:45.669Z,1004.80
2023-02-02T00:04:45.636Z,1004.83
2023-02-02T00:05:45.614Z,1004.88
2023-02-02T00:06:45.616Z,1004.83
2023-02-02T00:07:45.624Z,1004.75
2023-02-02T00:08:45.584Z,1004.67
2023-02-02T00:09:45.578Z,1004.71
2023-02-02T00:10:45.557Z,1004.73
2023-02-02T00:11:45.549Z,1004.83
2023-02-02T00:12:45.548Z,1004.91
2023-02-02T00:13:45.528Z,1004.86
2023-02-02T00:14:45.529Z,1004.77
2023-02-02T00:15:45.530Z,1004.83
2023-02-02T00:16:45.512Z,1004.76
2023-02-02T00:17:45.480Z,1004.73
2023-02-02T00:18:45.477Z,1004.77
2023-02-02T00:19:45.459Z,1004.78
2023-02-02T00:20:45.479Z,1004.84
2023-02-02T00:21:45.451Z,1004.86
2023-02-02T00:22:45.443Z,1004.87
2023-02-02T00:23:45.422Z,1004.95
2023-02-02T00:24:45.407Z,1004.83
2023-02-02T00:25:45.417Z,1004.79
2023-02-02T00:26:45.444Z,1004.82
2023-02-02T00:27:45.383Z,1004.53
2023-02-02T00:28:45.387Z,1004.59
2023-02-02T00:29:45.361Z,1004.75
2023-02-02T00:30:45.384Z,1004.67
2023-02-02T00:31:45.438Z,1004.82
2023-02-02T00:32:45.328Z,1004.64
2023-02-02T00:33:45.322Z,1004.77
2023-02-02T00:34:45.327Z,1004.78
2023-02-02T00:35:45.298Z,1004.67
2023-02-02T00:36:45.303Z,1004.79
2023-02-02T00:37:45.278Z,1004.84
2023-02-02T00:38:45.260Z,1004.80
2023-02-02T00:39:45.246Z,1004.83
2023-02-02T00:40:45.237Z,1004.71
2023-02-02T00:41:45.234Z,1004.75
2023-02-02T00:42:45.230Z,1004.75
2023-02-02T00:43:45.212Z,1004.72
2023-02-02T00:44:45.200Z,1004.60
2023-02-02T00:45:45.235Z,1004.76
2023-02-02T00:46:45.176Z,1004.74
2023-02-02T00:47:45.181Z,1004.84
2023-02-02T00:48:45.161Z,1004.79
2023-02-02T00:49:45.148Z,1004.82
2023-02-02T00:50:45.130Z,1004.82
2023-02-02T00:51:45.125Z,1004.78
2023-02-02T00:52:45.131Z,1004.79
2023-02-02T00:53:45.112Z,1004.61
2023-02-02T00:54:45.080Z,1004.61
2023-02-02T00:55:45.072Z,1004.65
2023-02-02T00:56:45.069Z,1004.61
2023-02-02T00:57:45.066Z,1004.77
2023-02-02T00:58:45.058Z,1004.67
2023-02-02T00:59:45.045Z,1004.67
2023-02-02T01:00:45.041Z,1004.76
2023-02-02T01:01:45.035Z,1004.54
2023-02-02T01:02:45.001Z,1004.63
2023-02-02T01:03:45.021Z,1004.80
2023-02-02T01:04:44.993Z,1004.70
2023-02-02T01:05:44.971Z,1004.77
2023-02-02T01:06:44.961Z,1004.74
2023-02-02T01:07:44.952Z,1004.86
2023-02-02T01:08:44.949Z,1004.80
2023-02-02T01:09:44.937Z,1004.93
2023-02-02T01:10:44.915Z,1004.74
2023-02-02T01:11:44.912Z,1004.83
2023-02-02T01:12:44.891Z,1004.91
2023-02-02T01:13:44.888Z,1004.86
2023-02-02T01:14:44.896Z,1004.84
2023-02-02T01:15:44.863Z,1004.84
2023-02-02T01:16:44.888Z,1004.88
2023-02-02T01:17:44.846Z,1004.93
2023-02-02T01:18:44.840Z,1004.83
2023-02-02T01:19:44.866Z,1005.01
2023-02-02T01:20:44.817Z,1004.91
2023-02-02T01:21:44.791Z,1004.93
2023-02-02T01:22:44.788Z,1004.93
2023-02-02T01:23:44.775Z,1004.87
2023-02-02T01:24:44.760Z,1005.02
2023-02-02T01:25:44.763Z,1004.96
2023-02-02T01:26:44.778Z,1005.20
2023-02-02T01:27:44.745Z,1005.06
2023-02-02T01:28:44.712Z,1004.98
2023-02-02T01:29:44.715Z,1004.85
2023-02-02T01:30:44.729Z,1004.88
2023-02-02T01:31:44.719Z,1004.99
2023-02-02T01:32:44.675Z,1005.10
2023-02-02T01:33:44.670Z,1005.09
2023-02-02T01:34:44.658Z,1005.01
2023-02-02T01:35:44.684Z,1005.04
2023-02-02T01:36:44.639Z,1005.08
2023-02-02T01:37:44.619Z,1005.01
2023-02-02T01:38:44.604Z,1005.16
2023-02-02T01:39:44.592Z,1004.75
2023-02-02T01:40:44.601Z,1004.91
2023-02-02T01:41:44.588Z,1004.98
2023-02-02T01:42:44.575Z,1004.94
2023-02-02T01:43:44.564Z,1004.99
2023-02-02T01:44:44.562Z,1005.01
2023-02-02T01:45:44.569Z,1004.98
2023-02-02T01:46:44.530Z,1004.97
2023-02-02T01:47:44.523Z,1005.09
2023-02-02T01:48:44.505Z,1004.96
2023-02-02T01:49:44.486Z,1005.07
2023-02-02T01:50:44.497Z,1005.02
2023-02-02T01:51:44.493Z,1005.01
2023-02-02T01:52:44.462Z,1005.05
2023-02-02T01:53:44.455Z,1005.15
2023-02-02T01:54:44.452Z,1005.30
2023-02-02T01:55:44.429Z,1005.13
2023-02-02T01:56:44.421Z,1005.08
2023-02-02T01:57:44.401Z,1005.17
2023-02-02T01:58:44.403Z,1005.13
2023-02-02T01:59:44.388Z,1005.23
2023-02-02T02:00:46.141Z,1005.22
2023-02-02T02:01:44.363Z,1005.39
2023-02-02T02:02:44.491Z,1005.33
2023-02-02T02:03:44.367Z,1005.29
2023-02-02T02:04:44.326Z,1005.21
2023-02-02T02:05:44.367Z,1005.22
2023-02-02T02:06:44.309Z,1005.38
2023-02-02T02:07:44.316Z,1005.28
2023-02-02T02:08:44.280Z,1005.28
2023-02-02T02:09:44.285Z,1005.44
2023-02-02T02:10:44.266Z,1005.45
2023-02-02T02:11:44.266Z,1005.40
2023-02-02T02:12:44.247Z,1005.30
2023-02-02T02:13:44.229Z,1005.31
2023-02-02T02:14:44.239Z,1005.44
2023-02-02T02:15:44.213Z,1005.35
2023-02-02T02:16:44.213Z,1005.36
2023-02-02T02:17:44.184Z,1005.39
2023-02-02T02:18:44.185Z,1005.31
2023-02-02T02:19:44.160Z,1005.25
2023-02-02T02:20:44.163Z,1005.35
2023-02-02T02:21:44.161Z,1005.31
2023-02-02T02:22:44.133Z,1005.39
2023-02-02T02:23:44.156Z,1005.39
2023-02-02T02:24:44.131Z,1005.29
2023-02-02T02:25:44.106Z,1005.32
2023-02-02T02:26:44.172Z,1005.36
2023-02-02T02:27:44.087Z,1005.40
2023-02-02T02:28:44.073Z,1005.51
2023-02-02T02:29:44.061Z,1005.30
2023-02-02T02:30:44.134Z,1005.43
2023-02-02T02:31:44.119Z,1005.44
2023-02-02T02:32:44.044Z,1005.38
2023-02-02T02:33:44.019Z,1005.47
2023-02-02T02:34:44.011Z,1005.50
2023-02-02T02:35:44.011Z,1005.57
2023-02-02T02:36:44.006Z,1005.49
2023-02-02T02:37:43.992Z,1005.44
2023-02-02T02:38:43.963Z,1005.49
2023-02-02T02:39:43.982Z,1005.56
2023-02-02T02:40:43.939Z,1005.51
2023-02-02T02:41:43.950Z,1005.52
2023-02-02T02:42:43.923Z,1005.44
2023-02-02T02:43:43.921Z,1005.50
2023-02-02T02:44:43.893Z,1005.58
2023-02-02T02:45:43.885Z,1005.49
2023-02-02T02:46:43.891Z,1005.59
2023-02-02T02:47:43.883Z,1005.59
2023-02-02T02:48:43.852Z,1005.43
2023-02-02T02:49:43.847Z,1005.58
2023-02-02T02:50:43.829Z,1005.71
2023-02-02T02:51:43.819Z,1005.62
2023-02-02T02:52:43.823Z,1005.61
2023-02-02T02:53:43.799Z,1005.58
2023-02-02T02:54:43.784Z,1005.58
2023-02-02T02:55:43.795Z,1005.70
2023-02-02T02:56:43.780Z,1005.69
2023-02-02T02:57:43.769Z,1005.76
2023-02-02T02:58:43.745Z,1005.76
2023-02-02T02:59:43.730Z,1005.66
2023-02-02T03:00:43.733Z,1005.75
2023-02-02T03:01:43.737Z,1005.81
2023-02-02T03:02:43.724Z,1005.84
2023-02-02T03:03:43.711Z,1005.81
2023-02-02T03:04:43.684Z,1005.92
2023-02-02T03:05:43.695Z,1005.84
2023-02-02T03:06:43.662Z,1005.96
2023-02-02T03:07:43.659Z,1005.92
2023-02-02T03:08:43.648Z,1005.89
2023-02-02T03:09:43.655Z,1005.90
2023-02-02T03:10:43.631Z,1006.05
2023-02-02T03:11:43.623Z,1005.92
2023-02-02T03:12:43.596Z,1005.99
2023-02-02T03:13:43.591Z,1006.00
2023-02-02T03:14:43.611Z,1006.07
2023-02-02T03:15:43.571Z,1006.05
2023-02-02T03:16:43.565Z,1006.09
2023-02-02T03:17:43.538Z,1006.10
2023-02-02T03:18:43.536Z,1006.09
2023-02-02T03:19:43.530Z,1006.12
2023-02-02T03:20:43.544Z,1006.15
2023-02-02T03:21:43.508Z,1006.15
2023-02-02T03:22:43.504Z,1006.06
2023-02-02T03:23:43.483Z,1006.16
2023-02-02T03:24:43.466Z,1006.22
2023-02-02T03:25:43.465Z,1006.16
2023-02-02T03:26:43.509Z,1006.21
2023-02-02T03:27:43.456Z,1006.24
2023-02-02T03:28:43.440Z,1006.28
2023-02-02T03:29:43.441Z,1006.26
2023-02-02T03:30:43.448Z,1006.33
2023-02-02T03:31:43.433Z,1006.24
2023-02-02T03:32:43.386Z,1006.28
2023-02-02T03:33:43.370Z,1006.23
2023-02-02T03:34:43.372Z,1006.32
2023-02-02T03:35:43.369Z,1006.32
2023-02-02T03:36:43.393Z,1006.45
2023-02-02T03:37:43.338Z,1006.41
2023-02-02T03:38:43.331Z,1006.47
2023-02-02T03:39:43.318Z,1006.42
2023-02-02T03:40:43.305Z,1006.48
2023-02-02T03:41:43.293Z,1006.43
2023-02-02T03:42:43.287Z,1006.44
2023-02-02T03:43:43.284Z,1006.53
2023-02-02T03:44:43.265Z,1006.55
2023-02-02T03:45:43.272Z,1006.53
2023-02-02T03:46:43.267Z,1006.43
2023-02-02T03:47:43.234Z,1006.44
2023-02-02T03:48:43.227Z,1006.51
2023-02-02T03:49:43.215Z,1006.38
2023-02-02T03:50:43.204Z,1006.53
2023-02-02T03:51:43.213Z,1006.51
2023-02-02T03:52:43.190Z,1006.55
2023-02-02T03:53:43.168Z,1006.58
2023-02-02T03:54:43.168Z,1006.66
2023-02-02T03:55:43.155Z,1006.56
2023-02-02T03:56:43.143Z,1006.62
2023-02-02T03:57:43.130Z,1006.60
2023-02-02T03:58:43.116Z,1006.63
2023-02-02T03:59:43.136Z,1006.66
2023-02-02T04:00:43.107Z,1006.63
2023-02-02T04:01:43.148Z,1006.70
2023-02-02T04:02:43.097Z,1006.79
2023-02-02T04:03:43.075Z,1006.75
2023-02-02T04:04:43.061Z,1006.87
2023-02-02T04:05:43.053Z,1006.73
2023-02-02T04:06:43.040Z,1006.79
2023-02-02T04:07:43.015Z,1006.71
2023-02-02T04:08:43.021Z,1006.77
2023-02-02T04:09:43.026Z,1006.86
2023-02-02T04:10:43.002Z,1006.95
2023-02-02T04:11:42.996Z,1006.89
2023-02-02T04:12:42.967Z,1006.76
2023-02-02T04:13:42.967Z,1006.91
2023-02-02T04:14:42.945Z,1006.99
2023-02-02T04:15:42.976Z,1006.85
2023-02-02T04:16:42.935Z,1006.99
2023-02-02T04:17:42.933Z,1007.06
2023-02-02T04:18:42.912Z,1007.09
2023-02-02T04:19:42.923Z,1007.12
2023-02-02T04:20:42.893Z,1007.20
2023-02-02T04:21:42.885Z,1007.08
2023-02-02T04:22:42.879Z,1007.16
2023-02-02T04:23:42.861Z,1007.06
2023-02-02T04:24:42.849Z,1007.19
2023-02-02T04:25:42.860Z,1007.19
2023-02-02T04:26:42.905Z,1007.16
2023-02-02T04:27:42.824Z,1007.08
2023-02-02T04:28:42.802Z,1007.18
2023-02-02T04:29:42.807Z,1007.19
2023-02-02T04:30:42.810Z,1007.26
2023-02-02T04:31:42.840Z,1007.25
2023-02-02T04:32:42.783Z,1007.40
2023-02-02T04:33:42.755Z,1007.21
2023-02-02T04:34:42.741Z,1007.49
2023-02-02T04:35:42.742Z,1007.39
2023-02-02T04:36:42.751Z,1007.38
2023-02-02T04:37:42.719Z,1007.27
2023-02-02T04:38:42.712Z,1007.44
2023-02-02T04:39:42.698Z,1007.38
2023-02-02T04:40:42.683Z,1007.47
2023-02-02T04:41:42.673Z,1007.55
2023-02-02T04:42:42.675Z,1007.37
2023-02-02T04:43:42.648Z,1007.52
2023-02-02T04:44:42.654Z,1007.43
2023-02-02T04:45:42.857Z,1007.54
2023-02-02T04:46:42.639Z,1007.64
2023-02-02T04:47:42.631Z,1007.53
2023-02-02T04:48:42.606Z,1007.56
2023-02-02T04:49:42.604Z,1007.62
2023-02-02T04:50:42.578Z,1007.72
2023-02-02T04:51:42.561Z,1007.58
2023-02-02T04:52:42.556Z,1007.50
2023-02-02T04:53:42.571Z,1007.53
2023-02-02T04:54:42.540Z,1008.16
2023-02-02T04:55:42.541Z,1007.56
2023-02-02T04:56:42.519Z,1007.61
2023-02-02T04:57:42.501Z,1007.66
2023-02-02T04:58:42.509Z,1007.74
2023-02-02T04:59:42.643Z,1007.70
2023-02-02T05:00:42.599Z,1007.76
2023-02-02T05:01:42.479Z,1007.72
2023-02-02T05:02:42.448Z,1007.73
2023-02-02T05:03:42.464Z,1007.80
2023-02-02T05:04:42.487Z,1007.83
2023-02-02T05:05:42.416Z,1007.82
2023-02-02T05:06:42.423Z,1007.89
2023-02-02T05:07:42.419Z,1007.85
2023-02-02T05:08:42.386Z,1007.78
2023-02-02T05:09:42.376Z,1007.79
2023-02-02T05:10:42.407Z,1007.89
2023-02-02T05:11:42.371Z,1007.86
2023-02-02T05:12:42.351Z,1007.99
2023-02-02T05:13:42.333Z,1008.01
2023-02-02T05:14:42.335Z,1007.99
2023-02-02T05:15:42.319Z,1008.11
2023-02-02T05:16:42.331Z,1007.99
2023-02-02T05:17:42.290Z,1008.11
2023-02-02T05:18:42.286Z,1008.04
2023-02-02T05:19:42.299Z,1008.05
2023-02-02T05:20:42.303Z,1008.11
2023-02-02T05:21:42.245Z,1008.16
2023-02-02T05:22:42.257Z,1008.11
2023-02-02T05:23:42.244Z,1008.17
2023-02-02T05:24:42.226Z,1008.10
2023-02-02T05:25:42.208Z,1008.20
2023-02-02T05:26:42.284Z,1008.10
2023-02-02T05:27:42.202Z,1008.18
2023-02-02T05:28:42.176Z,1008.20
2023-02-02T05:29:42.166Z,1008.20
2023-02-02T05:30:42.172Z,1008.28
2023-02-02T05:31:42.203Z,1008.27
2023-02-02T05:32:42.154Z,1008.37
2023-02-02T05:33:42.124Z,1008.31
2023-02-02T05:34:42.123Z,1008.36
2023-02-02T05:35:42.122Z,1008.28
2023-02-02T05:36:42.087Z,1008.32
2023-02-02T05:37:42.079Z,1008.35
2023-02-02T05:38:42.091Z,1008.40
2023-02-02T05:39:42.048Z,1008.33
2023-02-02T05:40:42.065Z,1008.35
2023-02-02T05:41:42.030Z,1008.43
2023-02-02T05:42:42.027Z,1008.42
2023-02-02T05:43:42.049Z,1008.50
2023-02-02T05:44:42.004Z,1008.44
2023-02-02T05:45:42.021Z,1008.33
2023-02-02T05:46:41.993Z,1008.49
2023-02-02T05:47:41.979Z,1008.46
2023-02-02T05:48:41.957Z,1008.67
2023-02-02T05:49:41.956Z,1008.42
2023-02-02T05:50:41.930Z,1008.49
2023-02-02T05:51:41.939Z,1008.56
2023-02-02T05:52:41.919Z,1008.54
2023-02-02T05:53:41.897Z,1008.56
2023-02-02T05:54:41.932Z,1008.67
2023-02-02T05:55:41.886Z,1008.56
2023-02-02T05:56:41.881Z,1008.59
2023-02-02T05:57:41.864Z,1008.71
2023-02-02T05:58:41.853Z,1008.65
2023-02-02T05:59:41.850Z,1008.74
2023-02-02T06:00:41.850Z,1008.71
2023-02-02T06:01:41.825Z,1008.72
2023-02-02T06:02:41.870Z,1008.80
2023-02-02T06:03:41.858Z,1008.73
2023-02-02T06:04:41.788Z,1008.77
2023-02-02T06:05:41.780Z,1008.80
2023-02-02T06:06:41.796Z,1008.81
2023-02-02T06:07:41.767Z,1008.82
2023-02-02T06:08:41.749Z,1008.85
2023-02-02T06:09:41.738Z,1008.92
2023-02-02T06:10:41.726Z,1008.96
2023-02-02T06:11:41.707Z,1008.94
2023-02-02T06:12:41.718Z,1008.97
2023-02-02T06:13:41.700Z,1008.95
2023-02-02T06:14:41.686Z,1008.90
2023-02-02T06:15:41.704Z,1008.89
2023-02-02T06:16:41.676Z,1009.03
2023-02-02T06:17:41.663Z,1008.92
2023-02-02T06:18:41.644Z,1009.03
2023-02-02T06:19:41.625Z,1008.96
2023-02-02T06:20:41.620Z,1009.03
2023-02-02T06:21:41.614Z,1008.97
2023-02-02T06:22:41.591Z,1009.03
2023-02-02T06:23:41.610Z,1009.02
2023-02-02T06:24:41.575Z,1009.06
2023-02-02T06:25:41.574Z,1009.06
2023-02-02T06:26:41.657Z,1008.98
2023-02-02T06:27:41.545Z,1009.03
2023-02-02T06:28:41.541Z,1009.11
2023-02-02T06:29:41.529Z,1009.07
2023-02-02T06:30:43.901Z,1009.14
2023-02-02T06:31:41.644Z,1009.20
2023-02-02T06:32:41.504Z,1009.20
2023-02-02T06:33:41.486Z,1009.22
2023-02-02T06:34:41.467Z,1009.23
2023-02-02T06:35:41.467Z,1009.23
2023-02-02T06:36:41.457Z,1009.29
2023-02-02T06:37:41.441Z,1009.33
2023-02-02T06:38:41.466Z,1009.34
2023-02-02T06:39:41.434Z,1009.30
2023-02-02T06:40:41.399Z,1009.29
2023-02-02T06:41:41.417Z,1009.33
2023-02-02T06:42:41.418Z,1009.30
2023-02-02T06:43:41.398Z,1009.27
2023-02-02T06:44:41.368Z,1009.31
2023-02-02T06:45:41.357Z,1009.32
2023-02-02T06:46:41.417Z,1009.38
2023-02-02T06:47:41.325Z,1009.35
2023-02-02T06:48:41.320Z,1009.31
2023-02-02T06:49:41.322Z,1009.32
2023-02-02T06:50:41.317Z,1009.36
2023-02-02T06:51:41.296Z,1009.31
2023-02-02T06:52:41.286Z,1009.37
2023-02-02T06:53:41.265Z,1009.41
2023-02-02T06:54:41.273Z,1009.43
2023-02-02T06:55:41.270Z,1009.42
2023-02-02T06:56:41.240Z,1009.41
2023-02-02T06:57:41.225Z,1009.46
2023-02-02T06:58:41.229Z,1009.41
2023-02-02T06:59:41.210Z,1009.41
2023-02-02T07:00:41.205Z,1009.57
2023-02-02T07:01:41.270Z,1009.51
2023-02-02T07:02:41.226Z,1009.47
2023-02-02T07:03:41.176Z,1009.51
2023-02-02T07:04:41.165Z,1009.53
2023-02-02T07:05:41.156Z,1009.52
2023-02-02T07:06:41.154Z,1009.55
2023-02-02T07:07:41.124Z,1009.64
2023-02-02T07:08:41.125Z,1009.64
2023-02-02T07:09:41.116Z,1009.66
2023-02-02T07:11:09.505Z,1009.56
2023-02-02T07:11:43.194Z,1009.56
2023-02-02T07:12:41.080Z,1009.57
2023-02-02T07:13:41.065Z,1009.63
2023-02-02T07:14:41.052Z,1009.61
2023-02-02T07:15:41.112Z,1009.69
2023-02-02T07:16:41.040Z,1009.64
2023-02-02T07:17:41.015Z,1009.72
2023-02-02T07:18:41.024Z,1009.70
2023-02-02T07:19:40.993Z,1009.70
2023-02-02T07:20:41.011Z,1009.72
2023-02-02T07:21:41.004Z,1009.76
2023-02-02T07:22:40.968Z,1009.83
2023-02-02T07:23:40.962Z,1009.83
2023-02-02T07:24:40.959Z,1009.85
2023-02-02T07:25:43.588Z,1009.88
2023-02-02T07:26:41.007Z,1009.80
2023-02-02T07:27:40.950Z,1009.91
2023-02-02T07:28:40.920Z,1009.97
2023-02-02T07:29:40.905Z,1009.91
2023-02-02T07:30:40.952Z,1009.95
2023-02-02T07:31:41.013Z,1009.96
2023-02-02T07:32:40.882Z,1010.03
2023-02-02T07:33:40.856Z,1009.98
2023-02-02T07:34:40.889Z,1009.96
2023-02-02T07:35:40.836Z,1010.04
2023-02-02T07:36:40.815Z,1010.07
2023-02-02T07:37:40.830Z,1010.08
2023-02-02T07:38:40.809Z,1010.02
2023-02-02T07:39:40.785Z,1010.05
2023-02-02T07:40:40.780Z,1010.14
2023-02-02T07:41:40.774Z,1010.16
2023-02-02T07:42:40.752Z,1010.17
2023-02-02T07:43:40.778Z,1010.13
2023-02-02T07:44:40.741Z,1010.15
2023-02-02T07:45:41.124Z,1010.17
2023-02-02T07:46:40.747Z,1010.22
2023-02-02T07:47:40.702Z,1010.25
2023-02-02T07:48:40.695Z,1010.26
2023-02-02T07:49:40.700Z,1010.44
2023-02-02T07:50:40.679Z,1010.26
2023-02-02T07:51:44.316Z,1010.36
2023-02-02T07:52:41.655Z,1010.27
2023-02-02T07:53:40.665Z,1010.29
2023-02-02T07:54:40.672Z,1010.36
2023-02-02T07:55:40.627Z,1010.39
2023-02-02T07:56:40.609Z,1010.43
2023-02-02T07:57:40.598Z,1010.39
2023-02-02T07:58:40.589Z,1010.44
2023-02-02T07:59:40.627Z,1010.44
2023-02-02T08:00:40.606Z,1010.45
2023-02-02T08:01:40.610Z,1010.47
2023-02-02T08:02:40.600Z,1010.43
2023-02-02T08:03:40.540Z,1010.46
2023-02-02T08:04:40.546Z,1010.48
2023-02-02T08:05:40.519Z,1010.48
2023-02-02T08:06:40.512Z,1010.50
2023-02-02T08:07:40.508Z,1010.41
2023-02-02T08:08:40.481Z,1010.52
2023-02-02T08:09:40.482Z,1010.54
2023-02-02T08:10:40.473Z,1010.57
2023-02-02T08:11:40.459Z,1010.56
2023-02-02T08:12:40.450Z,1010.56
2023-02-02T08:13:40.428Z,1010.69
2023-02-02T08:14:40.422Z,1010.54
2023-02-02T08:15:40.460Z,1010.75
2023-02-02T08:16:40.403Z,1010.63
2023-02-02T08:17:40.385Z,1010.64
2023-02-02T08:18:40.377Z,1010.66
2023-02-02T08:19:40.369Z,1010.69
2023-02-02T08:20:40.363Z,1010.68
2023-02-02T08:21:40.361Z,1010.70
2023-02-02T08:22:40.337Z,1010.74
2023-02-02T08:23:40.349Z,1010.73
2023-02-02T08:24:40.309Z,1010.82
2023-02-02T08:25:40.296Z,1010.70
2023-02-02T08:26:40.331Z,1010.91
2023-02-02T08:27:40.276Z,1010.89
2023-02-02T08:28:40.278Z,1010.84
2023-02-02T08:29:40.264Z,1010.81
2023-02-02T08:30:40.306Z,1010.83
2023-02-02T08:31:40.316Z,1010.95
2023-02-02T08:32:40.232Z,1010.90
2023-02-02T08:33:40.219Z,1010.95
2023-02-02T08:34:40.220Z,1010.95
2023-02-02T08:35:40.192Z,1010.98
2023-02-02T08:36:40.186Z,1010.92
2023-02-02T08:37:40.179Z,1010.99
2023-02-02T08:38:40.179Z,1010.97
2023-02-02T08:39:40.152Z,1011.02
2023-02-02T08:40:40.152Z,1011.05
2023-02-02T08:41:40.181Z,1010.95
2023-02-02T08:42:40.162Z,1010.95
2023-02-02T08:43:40.139Z,1011.02
2023-02-02T08:45:00.980Z,1010.91
2023-02-02T08:46:03.947Z,1010.94
2023-02-02T08:46:41.181Z,1010.94
2023-02-02T08:47:40.089Z,1011.05
2023-02-02T08:48:40.046Z,1011.01
2023-02-02T08:49:40.037Z,1011.06
2023-02-02T08:50:40.023Z,1010.97
2023-02-02T08:51:40.034Z,1011.09
2023-02-02T08:52:40.032Z,1011.01
2023-02-02T08:53:39.994Z,1011.02
2023-02-02T08:54:39.990Z,1011.07
2023-02-02T08:55:39.976Z,1011.07
2023-02-02T08:56:39.961Z,1011.07
2023-02-02T08:57:40.072Z,1011.06
2023-02-02T08:58:39.959Z,1011.11
2023-02-02T08:59:39.939Z,1011.08
2023-02-02T09:00:39.949Z,1011.14
2023-02-02T09:01:39.910Z,1011.15
2023-02-02T09:02:39.902Z,1011.16
2023-02-02T09:03:39.916Z,1011.18
2023-02-02T09:04:39.883Z,1011.21
2023-02-02T09:05:39.888Z,1011.17
2023-02-02T09:06:39.883Z,1011.13
2023-02-02T09:07:39.876Z,1011.25
2023-02-02T09:08:39.901Z,1011.11
2023-02-02T09:09:39.827Z,1011.17
2023-02-02T09:10:39.818Z,1011.12
2023-02-02T09:11:39.793Z,1011.16
2023-02-02T09:12:39.798Z,1011.12
2023-02-02T09:13:39.806Z,1011.18
2023-02-02T09:14:39.772Z,1011.15
2023-02-02T09:15:39.756Z,1011.27
2023-02-02T09:16:39.824Z,1011.25
2023-02-02T09:17:39.776Z,1011.32
2023-02-02T09:18:39.727Z,1011.32
2023-02-02T09:19:39.735Z,1011.15
2023-02-02T09:20:39.719Z,1011.33
2023-02-02T09:21:39.714Z,1011.42
2023-02-02T09:22:39.672Z,1011.45
2023-02-02T09:23:39.673Z,1011.41
2023-02-02T09:24:39.677Z,1011.43
2023-02-02T09:25:39.650Z,1011.42
2023-02-02T09:26:39.656Z,1011.44
2023-02-02T09:27:39.632Z,1011.42
2023-02-02T09:28:39.621Z,1011.40
2023-02-02T09:29:39.602Z,1011.37
2023-02-02T09:30:39.675Z,1011.44
2023-02-02T09:31:39.605Z,1011.46
2023-02-02T09:32:39.576Z,1011.51
2023-02-02T09:33:39.575Z,1011.49
2023-02-02T09:34:40.862Z,1011.47
2023-02-02T09:35:39.556Z,1011.54
2023-02-02T09:36:39.549Z,1011.61
2023-02-02T09:37:39.521Z,1011.65
2023-02-02T09:38:39.506Z,1011.59
2023-02-02T09:39:39.495Z,1011.65
2023-02-02T09:40:39.488Z,1011.74
2023-02-02T09:41:39.501Z,1011.83
2023-02-02T09:42:39.485Z,1011.80
2023-02-02T09:43:39.474Z,1011.73
2023-02-02T09:44:39.450Z,1011.77
2023-02-02T09:45:39.531Z,1011.70
2023-02-02T09:46:39.439Z,1011.84
2023-02-02T09:47:39.415Z,1011.79
2023-02-02T09:48:39.408Z,1011.79
2023-02-02T09:49:39.406Z,1011.75
2023-02-02T09:50:39.397Z,1011.80
2023-02-02T09:51:39.422Z,1011.87
2023-02-02T09:52:39.375Z,1011.77
2023-02-02T09:53:53.177Z,1011.86
2023-02-02T09:54:40.343Z,1011.78
2023-02-02T09:55:39.347Z,1011.84
2023-02-02T09:56:39.313Z,1011.86
2023-02-02T09:57:39.318Z,1011.83
2023-02-02T09:58:39.298Z,1011.79
2023-02-02T09:59:39.291Z,1011.84
2023-02-02T10:00:39.273Z,1011.96
2023-02-02T10:01:39.307Z,1012.01
2023-02-02T10:02:39.280Z,1011.91
2023-02-02T10:03:39.308Z,1012.08
2023-02-02T10:04:39.233Z,1011.91
2023-02-02T10:05:39.228Z,1011.76
2023-02-02T10:06:39.225Z,1012.02
2023-02-02T10:07:39.238Z,1012.01
2023-02-02T10:08:39.216Z,1012.08
2023-02-02T10:09:39.188Z,1011.99
2023-02-02T10:10:39.176Z,1012.06
2023-02-02T10:11:39.292Z,1012.01
2023-02-02T10:12:39.151Z,1011.98
2023-02-02T10:13:39.233Z,1011.97
2023-02-02T10:14:39.192Z,1011.96
2023-02-02T10:15:39.160Z,1011.90
2023-02-02T10:16:39.113Z,1012.04
2023-02-02T10:17:39.097Z,1011.93
2023-02-02T10:18:39.089Z,1011.90
2023-02-02T10:19:39.071Z,1012.01
2023-02-02T10:20:39.101Z,1011.96
2023-02-02T10:21:39.060Z,1012.01
2023-02-02T10:22:39.044Z,1011.95
2023-02-02T10:23:39.067Z,1011.97
2023-02-02T10:24:39.041Z,1012.05
2023-02-02T10:25:39.011Z,1011.99
2023-02-02T10:26:39.074Z,1011.97
2023-02-02T10:27:39.000Z,1011.94
2023-02-02T10:28:38.979Z,1011.99
2023-02-02T10:29:48.608Z,1011.99
2023-02-02T10:30:40.125Z,1012.06
2023-02-02T10:31:39.049Z,1012.06
2023-02-02T10:32:38.957Z,1012.08
2023-02-02T10:33:38.924Z,1012.09
2023-02-02T10:34:38.928Z,1011.99
2023-02-02T10:35:38.903Z,1012.17
2023-02-02T10:36:38.894Z,1011.99
2023-02-02T10:37:38.880Z,1012.19
2023-02-02T10:38:38.884Z,1012.19
2023-02-02T10:39:38.938Z,1012.23
2023-02-02T10:40:38.866Z,1012.23
2023-02-02T10:41:38.843Z,1012.12
2023-02-02T10:42:38.834Z,1012.20
2023-02-02T10:43:38.810Z,1012.30
2023-02-02T10:44:38.812Z,1012.34
2023-02-02T10:45:38.803Z,1012.32
2023-02-02T10:46:38.857Z,1012.34
2023-02-02T10:47:38.782Z,1012.33
2023-02-02T10:48:38.771Z,1012.35
2023-02-02T10:49:46.296Z,1012.37
2023-02-02T10:50:38.759Z,1012.38
2023-02-02T10:51:46.277Z,1012.44
2023-02-02T10:52:38.722Z,1012.45
2023-02-02T10:53:38.706Z,1012.44
2023-02-02T10:54:54.061Z,1012.44
2023-02-02T10:55:39.720Z,1012.46
2023-02-02T10:56:47.674Z,1012.46
2023-02-02T10:57:46.201Z,1012.47
2023-02-02T10:58:38.656Z,1012.49
2023-02-02T10:59:46.175Z,1012.47
2023-02-02T11:00:46.183Z,1012.63
2023-02-02T11:01:38.674Z,1012.54
2023-02-02T11:02:38.657Z,1012.52
2023-02-02T11:03:38.606Z,1012.48
2023-02-02T11:04:38.596Z,1012.54
2023-02-02T11:05:38.583Z,1012.57
2023-02-02T11:06:38.575Z,1012.65
2023-02-02T11:07:38.565Z,1012.60
2023-02-02T11:08:38.546Z,1012.59
2023-02-02T11:09:38.566Z,1012.74
2023-02-02T11:10:38.531Z,1012.69
2023-02-02T11:11:38.552Z,1012.61
2023-02-02T11:12:38.522Z,1012.63
2023-02-02T11:13:38.491Z,1012.64
2023-02-02T11:14:45.196Z,1012.69
2023-02-02T11:15:39.482Z,1012.71
2023-02-02T11:16:43.121Z,1012.62
2023-02-02T11:17:39.472Z,1012.71
2023-02-02T11:18:38.458Z,1012.69
2023-02-02T11:19:38.429Z,1012.78
2023-02-02T11:20:38.434Z,1012.77
2023-02-02T11:21:38.407Z,1012.88
2023-02-02T11:22:38.435Z,1012.79
2023-02-02T11:23:38.398Z,1012.75
2023-02-02T11:24:38.392Z,1012.82
2023-02-02T11:25:38.372Z,1012.79
2023-02-02T11:26:38.416Z,1012.80
2023-02-02T11:27:38.378Z,1012.84
2023-02-02T11:28:38.352Z,1012.83
2023-02-02T11:29:38.330Z,1012.85
2023-02-02T11:30:38.412Z,1012.79
2023-02-02T11:31:38.434Z,1012.95
2023-02-02T11:32:38.303Z,1012.91
2023-02-02T11:33:38.289Z,1012.81
2023-02-02T11:34:38.287Z,1012.93
2023-02-02T11:35:38.263Z,1012.83
2023-02-02T11:36:38.280Z,1012.90
2023-02-02T11:37:38.262Z,1012.85
2023-02-02T11:38:38.237Z,1012.90
2023-02-02T11:39:38.214Z,1012.86
2023-02-02T11:40:38.212Z,1013.00
2023-02-02T11:41:38.195Z,1012.94
2023-02-02T11:42:38.198Z,1012.94
2023-02-02T11:43:38.216Z,1012.84
2023-02-02T11:44:38.179Z,1012.89
2023-02-02T11:45:38.154Z,1012.98
2023-02-02T11:46:38.220Z,1012.96
2023-02-02T11:47:38.150Z,1012.90
2023-02-02T11:48:38.154Z,1012.96
2023-02-02T11:49:38.131Z,1012.90
2023-02-02T11:50:38.225Z,1012.91
2023-02-02T11:51:38.093Z,1012.93
2023-02-02T11:52:38.075Z,1013.01
2023-02-02T11:53:38.085Z,1013.01
2023-02-02T11:54:38.054Z,1013.03
2023-02-02T11:55:38.059Z,1012.97
2023-02-02T11:56:38.052Z,1012.96
2023-02-02T11:57:38.019Z,1012.96
2023-02-02T11:58:38.026Z,1012.94
2023-02-02T11:59:38.024Z,1012.93
2023-02-02T12:00:38.000Z,1012.98
2023-02-02T12:01:38.031Z,1012.97
2023-02-02T12:02:37.964Z,1012.90
2023-02-02T12:03:37.966Z,1013.02
2023-02-02T12:04:37.965Z,1012.92
2023-02-02T12:05:37.979Z,1013.01